createdAt,value
2023-05-12T00:02:22.760Z,15.52
2023-05-12T00:12:26.809Z,17.05
2023-05-12T00:22:29.691Z,19.08
2023-05-12T00:32:33.680Z,20.45
2023-05-12T00:42:36.539Z,19.10
2023-05-12T00:52:40.994Z,19.40
2023-05-12T01:02:43.797Z,20.98
2023-05-12T01:12:48.218Z,20.70
2023-05-12T01:22:50.990Z,20.70
2023-05-12T01:32:55.155Z,21.25
2023-05-12T01:42:57.851Z,20.40
2023-05-12T01:53:01.810Z,18.58
2023-05-12T02:03:04.662Z,20.35
2023-05-12T02:13:08.724Z,20.15
2023-05-12T02:23:11.768Z,19.88
2023-05-12T02:33:16.314Z,24.52
2023-05-12T02:43:18.962Z,21.00
2023-05-12T02:53:22.944Z,21.15
2023-05-12T03:03:25.698Z,29.23
2023-05-12T03:13:29.800Z,20.42
2023-05-12T03:23:32.924Z,18.98
2023-05-12T03:33:36.959Z,22.98
2023-05-12T03:43:40.340Z,19.85
2023-05-12T03:53:46.214Z,19.90
2023-05-12T04:03:49.036Z,19.48
2023-05-12T04:13:53.087Z,18.40
2023-05-12T04:23:55.868Z,19.45
2023-05-12T04:33:59.871Z,16.63
2023-05-12T04:44:02.497Z,16.75
2023-05-12T04:54:06.613Z,16.25
2023-05-12T05:04:09.364Z,17.30
2023-05-12T05:14:13.632Z,21.15
2023-05-12T05:24:16.282Z,17.65
2023-05-12T05:34:21.691Z,17.38
2023-05-12T05:44:24.823Z,19.23
2023-05-12T05:54:28.822Z,19.10
2023-05-12T06:04:31.459Z,19.23
2023-05-12T06:14:35.457Z,19.08
2023-05-12T06:24:38.106Z,19.52
2023-05-12T06:34:42.318Z,22.17
2023-05-12T06:44:45.586Z,20.88
2023-05-12T06:54:49.566Z,21.05
2023-05-12T07:04:52.227Z,21.02
2023-05-12T07:14:56.261Z,21.23
2023-05-12T07:24:59.176Z,20.95
2023-05-12T07:35:03.600Z,19.75
2023-05-12T07:45:06.984Z,18.10
2023-05-12T07:55:11.465Z,17.38
2023-05-12T08:05:14.377Z,15.88
2023-05-12T08:15:18.712Z,14.02
2023-05-12T08:25:22.002Z,14.27
2023-05-12T08:35:27.513Z,13.57
2023-05-12T08:45:31.058Z,11.75
2023-05-12T08:55:36.100Z,11.57
2023-05-12T09:05:39.986Z,10.85
2023-05-12T09:15:46.820Z,9.55
2023-05-12T09:26:00.932Z,8.40
2023-05-12T09:36:05.743Z,6.55
2023-05-12T09:46:08.432Z,6.85
2023-05-12T09:56:13.687Z,6.80
2023-05-12T10:06:21.058Z,6.80
2023-05-12T10:16:25.285Z,6.80
2023-05-12T10:26:28.252Z,3.72
2023-05-12T10:36:32.528Z,4.30
2023-05-12T10:46:35.228Z,3.50
2023-05-12T10:56:45.170Z,3.65
2023-05-12T11:06:59.436Z,3.50
2023-05-12T11:17:04.123Z,3.05
2023-05-12T11:27:07.734Z,2.63
2023-05-12T11:37:11.816Z,2.20
2023-05-12T11:47:15.757Z,2.30
2023-05-12T12:07:31.833Z,2.10
2023-05-12T12:17:36.297Z,1.83
2023-05-12T12:27:38.959Z,1.65
2023-05-12T12:37:43.114Z,2.00
2023-05-12T12:47:45.821Z,1.83
2023-05-12T12:57:49.877Z,1.77
2023-05-12T13:07:52.568Z,1.90
2023-05-12T13:17:56.609Z,2.53
2023-05-12T13:27:59.275Z,1.85
2023-05-12T13:38:03.270Z,2.33
2023-05-12T13:48:06.454Z,2.50
2023-05-12T13:58:10.497Z,2.67
2023-05-12T14:08:13.198Z,2.60
2023-05-12T14:18:17.527Z,2.85
2023-05-12T14:28:20.427Z,2.17
2023-05-12T14:38:24.698Z,2.30
2023-05-12T14:48:27.335Z,2.45
2023-05-12T14:58:31.429Z,2.63
2023-05-12T15:08:34.117Z,2.50
2023-05-12T15:18:38.145Z,2.25
2023-05-12T15:28:40.888Z,2.47
2023-05-12T15:38:46.932Z,2.78
2023-05-12T15:48:49.629Z,3.00
2023-05-12T15:58:53.816Z,2.75
2023-05-12T16:08:56.714Z,2.60
2023-05-12T16:19:00.786Z,2.88
2023-05-12T16:29:03.516Z,4.82
2023-05-12T16:39:08.965Z,3.40
2023-05-12T16:49:11.677Z,3.47
2023-05-12T16:59:15.662Z,2.90
2023-05-12T17:09:18.901Z,2.75
2023-05-12T17:19:23.095Z,2.35
2023-05-12T17:29:25.798Z,2.20
2023-05-12T17:39:29.877Z,2.05
2023-05-12T17:49:32.620Z,2.60
2023-05-12T17:59:36.736Z,2.03
2023-05-12T18:09:39.374Z,1.90
2023-05-12T18:19:43.420Z,2.10
2023-05-12T18:29:46.140Z,2.10
2023-05-12T18:39:50.141Z,2.35
2023-05-12T18:49:53.139Z,2.30
2023-05-12T18:59:57.406Z,2.90
2023-05-12T19:10:00.106Z,3.33
2023-05-12T19:20:04.788Z,2.92
2023-05-12T19:30:08.738Z,3.65
2023-05-12T19:40:13.294Z,9.95
2023-05-12T19:50:16.509Z,14.70
2023-05-12T20:00:22.060Z,13.82
2023-05-12T20:10:24.732Z,11.15
2023-05-12T20:20:29.129Z,6.07
2023-05-12T20:30:31.910Z,5.70
2023-05-12T20:40:35.974Z,6.45
2023-05-12T20:50:39.637Z,6.40
2023-05-12T21:00:44.214Z,6.53
2023-05-12T21:10:48.375Z,6.07
2023-05-12T21:20:52.501Z,5.93
2023-05-12T21:30:55.407Z,6.30
2023-05-12T21:40:59.523Z,5.85
2023-05-12T21:51:03.800Z,5.80
2023-05-12T22:01:07.992Z,6.15
2023-05-12T22:11:10.805Z,6.13
2023-05-12T22:21:15.025Z,5.25
2023-05-12T22:31:17.782Z,6.05
2023-05-12T22:41:21.928Z,5.93
2023-05-12T22:51:24.624Z,6.28
2023-05-12T23:01:29.046Z,6.15
2023-05-12T23:11:31.854Z,5.95
2023-05-12T23:21:36.206Z,6.40
2023-05-12T23:31:38.870Z,7.13
2023-05-12T23:41:42.987Z,5.68
2023-05-12T23:51:45.834Z,6.18
